Tiempo atmosférico en la estación meteorológica de A Coruña Aeropuerto, A Coruña (98 m.)



Fecha
DESCASC
Temp. máxima en grados centígrados (hora)
DESCASC
Temp. mínima en grados centígrados (hora)
DESCASC
Temp. media en grados centígrados
DESCASC
Racha de viento máxima en m/sg (hora)
DESCASC
Velocidad máxima media en intervalos de 10 minutos(hora)
DESCASC
Precipitaciones diarias en mm
DESCASC
Precipitaciones de 00:00 a 06:00 en mm
DESCASC
Precipitaciones de 06:00 a 12:00 en mm
DESCASC
Precipitaciones de 12:00 a 18:00 en mm
DESCASC
Precipitaciones de 18:00 a 24:00 en mm
DESCASC
22-04-2019 19.8 (13:00) 6 (08:00) 12.9 14.44 (21:40) 8.33 (21:20) 0.4 0 0 0 0.4
21-04-2019 19.4 (15:00) 7.1 (08:00) 13.2 12.5 (17:10) 6.67 (16:50) 0 0 0 0 0
20-04-2019 22.1 (14:50) 7.4 (08:10) 14.8 10.28 (17:50) 5.28 (18:10) 0 0 0 0 0
19-04-2019 19.2 (17:10) 12.3 (03:50) 15.8 9.72 (07:00) 5.56 (07:40) 0.1 0 0.1 0 0
18-04-2019 17.4 (12:00) 10 (00:00) 13.7 9.17 (17:20) 5.83 (18:20) 3.9 3.9 0 0 0
17-04-2019 18.6 (15:10) 9.4 (00:00) 14 12.5 (14:00) 7.22 (14:50) 3.8 0 0 0 3.8
16-04-2019 20.4 (17:20) 8.2 (00:00) 14.3 9.72 (12:10) 5.28 (11:40) 0 0 0 0 0
15-04-2019 17.2 (00:10) 10 (00:00) 13.6 12.5 (11:50) 7.78 (11:40) 2.3 1.2 1.1 0 0
14-04-2019 22.3 (17:10) 14.4 (00:00) 18.3 11.67 (17:30) 8.61 (17:40) 0 0 0 0 0
13-04-2019 19.8 (14:40) 8.6 (00:00) 14.2 11.39 (17:10) 7.78 (17:10) 0 0 0 0 0
12-04-2019 18.6 (14:10) 2.5 (00:00) 10.6 7.78 (16:40) 4.72 (16:10) 0 0 0 0 0
11-04-2019 14.7 (13:00) 3.7 (00:00) 9.2 8.89 (17:30) 5.56 (19:10) 0 0 0 0 0
10-04-2019 14.4 (16:40) 9.6 (00:00) 12 11.67 (05:00) 6.94 (07:30) 0.4 0.2 0.2 0 0
09-04-2019 14.5 (14:10) 7 (00:00) 10.8 16.39 (19:30) 9.17 (19:40) 16.4 3.5 4.1 3.2 5.6
08-04-2019 16.2 (14:20) 7 (00:00) 11.6 18.61 (16:10) 12.22 (15:10) 4.7 0.6 0 0.7 3.4
07-04-2019 13.6 (14:30) 4.3 (00:00) 9 13.33 (14:50) 8.89 (17:50) 7.6 0.2 0 3.3 4.1
06-04-2019 12 (17:10) 5.8 (00:00) 8.9 16.39 (14:20) 10 (14:20) 13.2 2.6 7.1 3.5 0
05-04-2019 10.4 (15:30) 3.8 (00:00) 7.1 13.89 (13:10) 9.44 (13:10) 7.3 0 0 2.9 4.4
04-04-2019 10.7 (12:20) 4.6 (00:00) 7.6 14.44 (14:50) 9.17 (13:30) 6.5 0.1 0.1 3.9 2.4
03-04-2019 11.4 (17:00) 6.3 (00:00) 8.8 16.11 (15:50) 9.44 (18:10) 1.8 0.8 0.8 0.2 0
02-04-2019 14 (15:30) 9.8 (00:00) 11.9 9.72 (19:00) 5.28 (16:50) 0 0 0 0 0
01-04-2019 -- (--) -- (--) -- -- (--) -- (--) -- -- -- 0 0
31-03-2019 -- (--) -- (--) -- -- (--) -- (--) -- -- -- -- --
30-03-2019 -- (--) -- (--) -- -- (--) -- (--) -- 0 0 -- --
29-03-2019 20.8 (12:40) 4.2 (00:00) 12.5 9.17 (16:30) 5.56 (16:40) 0 0 0 0 0
28-03-2019 21.1 (16:10) 5.7 (00:00) 13.4 11.39 (14:40) 6.11 (15:10) 0 0 0 0 0
27-03-2019 21.5 (14:10) 5.7 (00:00) 13.6 12.5 (18:00) 7.22 (18:00) 0 0 0 0 0

Gráficas

Temp. máximas Temp. mínimas Temp. medias Precipitaciones Rachas de viento máximas Velocidades máximas media en intervalos de 10 minutos

Datos horarios

Fecha y hora oficial Temperatura (ºC) Velocidad del viento (km/h) Dirección del viento Racha (km/h) Dirección de racha Precipitación (mm) Presión (hPa) Tendencia (hPa) Humedad (%)
2019-04-25 23:00:00 10.7 25 Oeste 46 Oeste 0.3 1003.2 5 87
2019-04-25 22:00:00 11.5 25 Oeste 50 Noroeste 0 1001.2 3.9 86
2019-04-25 21:00:00 11.5 28 Oeste 58 Oeste 2.3 999.4 3 84
2019-04-25 20:00:00 10.5 22 Noroeste 46 Oeste 2.3 998.2 3.6 92
2019-04-25 19:00:00 10.7 22 Oeste 42 Noroeste 0.2 997.3 3.5 87
2019-04-25 18:00:00 10.4 26 Noroeste 50 Oeste 1.5 996.4 4 84
2019-04-25 17:00:00 12 22 Oeste 45 Oeste 0.2 994.6 2.5 78
2019-04-25 16:00:00 12 32 Oeste 59 Oeste 0 993.8 2.1 67
2019-04-25 15:00:00 12 23 Sudoeste 68 Oeste 0.4 992.4 1 77
2019-04-25 14:00:00 10.8 38 Oeste 71 Sudoeste 0.1 992.1 1.1 70
2019-04-25 13:00:00 12.1 20 Sudoeste 52 Oeste 0.7 991.7 0.8 75
2019-04-25 12:00:00 12.1 24 Sudoeste 37 Sudoeste 0 991.4 1.2 68
2019-04-25 11:00:00 11.5 15 Sudoeste 28 Sur 0 991 1.3 76
2019-04-25 10:00:00 8.9 13 Sur 30 Sudoeste 0.4 990.9 2.1 82
2019-04-25 09:00:00 8.3 23 Sur 35 Sur 0.2 990.2 1.6 84
2019-04-25 08:00:00 7.3 14 Sur 32 Sur 0 989.7 1.8 87
2019-04-25 07:00:00 6.8 14 Sur 33 Sudeste 0 988.8 0.9 89
2019-04-25 06:00:00 7.1 24 Oeste 50 Oeste 1.3 988.6 0.7 84
2019-04-25 05:00:00 7.1 13 Sudoeste 22 Sur 0 987.9 -0.1 83
2019-04-25 04:00:00 6.9 13 Sur 21 Sudoeste 0.3 987.9 0.6 87
2019-04-25 03:00:00 7.1 13 Sur 42 Sudoeste 1.7 987.9 0.6 83
2019-04-25 02:00:00 7.6 11 Oeste 22 Sudoeste 0.9 988 1 83
2019-04-25 01:00:00 6.5 10 Sur 24 Sur 0 987.3 1.2 90
2019-04-25 00:00:00 7.4 12 Sur 30 Sudeste 0 987.3 1.8 85
2019-04-24 23:00:00 7.7 9 Sur 59 Oeste 0 987 2.3 84
2019-04-24 22:00:00 9.2 13 Sudoeste 26 Sudoeste 0 986.1 2 76
2019-04-24 21:00:00 10.2 14 Sudoeste 37 Sudoeste 0 985.5 1.4 72
2019-04-24 20:00:00 11.6 17 Oeste 41 Oeste 0 984.7 1.4 69
2019-04-24 19:00:00 11.4 21 Oeste 37 Oeste 0.7 984.1 1.9 72
2019-04-24 18:00:00 9.6 29 Oeste 54 Oeste 2 984.1 2 83
2019-04-24 17:00:00 9.1 18 Sudoeste 39 Oeste 3.2 983.3 2.4 86
2019-04-24 16:00:00 12.1 24 Oeste 63 Oeste 0 982.2 1.6 72
2019-04-24 15:00:00 11.9 33 Oeste 61 Oeste 0.1 982.1 2.6 72
2019-04-24 14:00:00 13.1 26 Oeste 58 Oeste 0.1 980.9 1.5 68
2019-04-24 13:00:00 11.9 25 Oeste 48 Sudoeste 1.1 980.6 0.5 83
2019-04-24 12:00:00 10.8 13 Sur 41 Sur 0 979.5 -1.1 81
2019-04-24 11:00:00 10 22 Sur 35 Sur 0 979.4 -1.5 78
2019-04-24 10:00:00 8.2 12 Sudeste 35 Sudeste 0.2 980.1 -1.3 83
2019-04-24 09:00:00 7.4 15 Sudeste 32 Sudeste 0.1 980.6 -2 81
2019-04-24 08:00:00 6.7 10 Sudeste 30 Sudeste 0 980.9 -2.7 83
2019-04-24 07:00:00 6.9 19 Sur 32 Sudeste 0 981.4 -2.6 86
2019-04-24 06:00:00 7 17 Sudeste 32 Sur 0 982.6 -2.5 86
2019-04-24 05:00:00 7.2 18 Sur 28 Sur 0 983.6 -2.2 87
2019-04-24 04:00:00 6 13 Sur 26 Sur 0 984 -2.2 90
2019-04-24 03:00:00 6.6 18 Sur 41 Sudoeste 1 985.1 -1.4 87
2019-04-24 02:00:00 7.1 19 Sur 30 Sudoeste 0 985.8 -0.6 84
2019-04-24 01:00:00 7.4 17 Sur 42 Sur 0 986.2 0.1 82
2019-04-24 00:00:00 7.5 15 Sudoeste 22 Sur 0 986.5 1.1 82
2019-04-23 23:00:00 8 7 Sur 11 Sur 0 986.4 1.3 79
2019-04-23 22:00:00 8.9 6 Sur 15 Sur 0 986.1 1.4 77
2019-04-23 21:00:00 10.6 6 Oeste 28 Oeste 0 985.4 0.8 63
2019-04-23 20:00:00 12.7 17 Oeste 33 Oeste 0 985.1 0.4 58
2019-04-23 19:00:00 13.2 17 Noroeste 33 Noroeste 0 984.7 0.2 54
2019-04-23 18:00:00 13.3 17 Oeste 32 Noroeste 0 984.6 0.3 52
2019-04-23 17:00:00 12.4 16 Noroeste 33 Noroeste 0 984.7 0.3 62
2019-04-23 16:00:00 11.9 21 Noroeste 33 Noroeste 0 984.5 0.4 63
2019-04-23 15:00:00 9.4 13 Sudoeste 28 Sur 1.5 984.3 1.3 89
2019-04-23 14:00:00 7 14 Sur 24 Sur 4.1 984.4 2 94
2019-04-23 13:00:00 6.8 14 Sudoeste 33 Sudoeste 5.2 984.1 2.4 92
2019-04-23 12:00:00 7.4 18 Sudoeste 32 Sudoeste 2.1 983 1.4 87
2019-04-23 11:00:00 8.5 13 Sudoeste 41 Sudoeste 0.6 982.4 1.9 83
2019-04-23 10:00:00 9.9 19 Sudoeste 33 Sudoeste 0 981.7 0.9 71
2019-04-23 09:00:00 9.3 16 Sudoeste 35 Sudeste 0 981.6 0.5 77
2019-04-23 08:00:00 8 22 Sur 33 Sur 0 980.5 -0.9 82
2019-04-23 07:00:00 8.2 19 Sur 33 Sur 0 980.8 -0.7 83
2019-04-23 06:00:00 8.8 24 Sur 33 Sur 0 981.1 -0.7 84
2019-04-23 05:00:00 9.2 16 Sur 24 Sur 0 981.4 -0.6 82
2019-04-23 04:00:00 9.1 14 Sudoeste 32 Sudoeste 0 981.5 -1 86
2019-04-23 03:00:00 9.4 19 Sur 33 Sudoeste 0 981.8 -1.2 82
2019-04-23 02:00:00 9.8 21 Sur 39 Sur 0 982 -1.4 83
2019-04-23 01:00:00 10 18 Sur 28 Sur 0 982.5 -0.6 85
2019-04-23 00:00:00 9.9 12 Sur 21 Sur 0 983 0.4 90
2019-04-22 23:00:00 10.4 14 Sur 28 Oeste 0.1 983.4 0.7 85
2019-04-22 22:00:00 10.7 13 Oeste 52 Oeste 0.3 983.1 -0.1 82
2019-04-22 21:00:00 14 22 Sudoeste 39 Sur 0 982.6 -1.1 73
2019-04-22 20:00:00 14.1 16 Sur 37 Sudoeste 0 982.7 -1.5 74
2019-04-22 19:00:00 14.1 20 Sudoeste 39 Sudoeste 0 983.2 -2.1 79
2019-04-22 18:00:00 15.2 28 Sudoeste 45 Sudoeste 0 983.7 -2.2 69
2019-04-22 17:00:00 17 20 Sur 28 Sur 0 984.2 -2.5 60
2019-04-22 16:00:00 15.4 8 Nordeste 18 Nordeste 0 985.3 -2.4 82
2019-04-22 15:00:00 15.9 14 Norte 24 Norte 0 985.9 -2.7 76
2019-04-22 14:00:00 17.5 15 Norte 24 Norte 0 986.7 -2.8 67
2019-04-22 13:00:00 19.4 6 Nordeste 22 Sur 0 987.7 -2.4 57
2019-04-22 12:00:00 17.6 9 Sur 24 Sudeste 0 988.6 -2.3 59
2019-04-22 11:00:00 14 8 Sudeste 13 Sudeste 0 989.5 -1.8 79
2019-04-22 10:00:00 9.3 8 Sur 15 Sur 0 990.1 -1.8 98
2019-04-22 09:00:00 6.9 10 Sur 15 Sudeste 0 990.9 -1.8 99
2019-04-22 08:00:00 6.1 6 Sur 13 Sur 0 991.3 -2.4 99
2019-04-22 07:00:00 6.6 7 Sur 15 Sur 0 991.9 -2.6 99
2019-04-22 06:00:00 6.8 6 Sur 11 Sur 0 992.7 -2.9 98
2019-04-22 05:00:00 7.5 7 Sur 11 Sur 0 993.7 -2.9 98
2019-04-22 04:00:00 8.3 9 Sur 11 Sur 0 994.5 -2.8 97
2019-04-22 03:00:00 9.8 5 Sur 9 Sur 0 995.6 -2.7 95
2019-04-22 02:00:00 10.7 3 Sur 8 Sur 0 996.6 -2.1 93
2019-04-22 01:00:00 11.6 0 Calma 8 Sur 0 997.3 -1.5 93
2019-04-22 00:00:00 12.4 3 Sur 9 Norte 0 998.3 -0.6 88
2019-04-21 23:00:00 13.2 6 Noroeste 13 Noroeste 0 998.7 -0.5 87
2019-04-21 22:00:00 13.7 5 Oeste 21 Noroeste 0 998.8 -0.7 89
2019-04-21 21:00:00 14.7 13 Noroeste 30 Noroeste 0 998.9 -1 86
2019-04-21 20:00:00 15.8 19 Noroeste 33 Norte 0 999.2 -1.3 81
2019-04-21 19:00:00 17.2 20 Norte 35 Norte 0 999.5 -1.7 71
2019-04-21 18:00:00 18.1 21 Norte 45 Norte 0 999.9 -1.9 65
2019-04-21 17:00:00 17.8 22 Norte 42 Norte 0 1000.5 -2.4 67
2019-04-21 16:00:00 18.7 23 Norte 37 Norte 0 1001.2 -2.9 65
2019-04-21 15:00:00 19.2 18 Norte 30 Norte 0 1001.8 -2.7 59
2019-04-21 14:00:00 18.2 15 Norte 24 Norte 0 1002.9 -2.1 62
2019-04-21 13:00:00 17.6 11 Norte 17 Norte 0 1004.1 -1 61
2019-04-21 12:00:00 16.1 7 Norte 13 Norte 0 1004.5 -0.8 63
2019-04-21 11:00:00 13.7 2 Norte 8 Sur 0 1005 -0.2 78
2019-04-21 10:00:00 10.4 3 Sur 8 Sudeste 0 1005.1 -0.3 97
2019-04-21 09:00:00 8.5 7 Sur 13 Sur 0 1005.3 -0.1 98
2019-04-21 08:00:00 7.3 4 Sudoeste 13 Sur 0 1005.2 -0.6 97
2019-04-21 07:00:00 8.3 4 Sur 8 Sur 0 1005.4 -0.6 93
2019-04-21 06:00:00 9.8 3 Noroeste 5 Noroeste 0 1005.4 -1.3 93
2019-04-21 05:00:00 9.7 2 Sudoeste 9 Noroeste 0 1005.8 -1.4 93
2019-04-21 04:00:00 10.6 6 Noroeste 9 Noroeste 0 1006 -1.5 92
2019-04-21 03:00:00 11.8 4 Noroeste 9 Noroeste 0 1006.7 -1.4 90
2019-04-21 02:00:00 12 6 Noroeste 9 Noroeste 0 1007.2 -1.1 91
2019-04-21 01:00:00 12.9 5 Noroeste 15 Norte 0 1007.5 -0.5 86
2019-04-21 00:00:00 14 9 Norte 18 Norte 0 1008.1 0.5 80
2019-04-20 23:00:00 15 9 Norte 22 Norte 0 1008.3 1 75
2019-04-20 22:00:00 15.7 13 Norte 22 Norte 0 1008 0.8 72
2019-04-20 21:00:00 16.7 14 Norte 30 Norte 0 1007.6 0.2 69
2019-04-20 20:00:00 17.8 16 Norte 30 Norte 0 1007.3 -0.4 65
2019-04-20 19:00:00 18.2 17 Norte 35 Norte 0 1007.2 -0.8 64
2019-04-20 18:00:00 18.5 18 Norte 37 Norte 0 1007.4 -1 65
2019-04-20 17:00:00 19.5 17 Norte 32 Norte 0 1007.7 -1.4 61
2019-04-20 16:00:00 20.6 14 Norte 24 Norte 0 1008 -1.8 57
2019-04-20 15:00:00 21.5 13 Norte 26 Norte 0 1008.4 -1.9 53
2019-04-20 14:00:00 20.7 13 Norte 26 Norte 0 1009.1 -1.4 53
2019-04-20 13:00:00 19.7 13 Norte 24 Norte 0 1009.8 -0.8 52
2019-04-20 12:00:00 16.8 13 Norte 21 Norte 0 1010.3 -0.4 60
2019-04-20 11:00:00 14.5 5 Norte 13 Noroeste 0 1010.5 0.2 70
2019-04-20 10:00:00 12.1 3 Nordeste 8 Norte 0 1010.6 0.4 79
2019-04-20 09:00:00 8.8 2 Sur 5 Sur 0 1010.7 0.7 91
2019-04-20 08:00:00 7.7 4 Sudoeste 8 Sudoeste 0 1010.3 -0.2 89
2019-04-20 07:00:00 9 3 Noroeste 8 Norte 0 1010.2 -0.3 86
2019-04-20 06:00:00 9.3 3 Noroeste 9 Norte 0 1010 -1.2 84
2019-04-20 05:00:00 9.7 0 Calma 8 Sudoeste 0 1010.5 -1.1 83
2019-04-20 04:00:00 9.9 6 Sudoeste 9 Sur 0 1010.5 -1.1 81
2019-04-20 03:00:00 11.5 4 Norte 8 Norte 0 1011.2 -0.1 74
2019-04-20 02:00:00 12.1 5 Oeste 8 Oeste 0 1011.6 0.7 73
2019-04-20 01:00:00 13.2 7 Noroeste 11 Noroeste 0 1011.6 1.6 71
2019-04-20 00:00:00 14.8 6 Norte 17 Nordeste 0 1011.3 2.4 64
2019-04-19 23:00:00 15.5 6 Norte 24 Este 0 1010.9 2.7 63
2019-04-19 22:00:00 16.1 18 Este 26 Este 0 1010 2.2 65
2019-04-19 21:00:00 16.2 10 Norte 22 Norte 0 1008.9 1.4 72
2019-04-19 20:00:00 18.1 12 Nordeste 26 Este 0 1008.2 0.9 64
2019-04-19 19:00:00 18.3 12 Nordeste 24 Nordeste 0 1007.8 0.7 68
2019-04-19 18:00:00 18.2 16 Norte 28 Norte 0 1007.5 0.5 67
2019-04-19 17:00:00 18.7 10 Norte 28 Norte 0 1007.3 0.4 66
2019-04-19 16:00:00 18.8 13 Norte 22 Nordeste 0 1007.1 0.4 67
2019-04-19 15:00:00 18.5 7 Nordeste 21 Nordeste 0 1007 0.1 68
2019-04-19 14:00:00 17.2 10 Nordeste 24 Norte 0 1006.9 0.5 74
2019-04-19 13:00:00 15.8 11 Nordeste 28 Nordeste 0 1006.7 0.2 81
2019-04-19 12:00:00 14.7 7 Nordeste 21 Norte 0 1006.9 0.9 88
2019-04-19 11:00:00 13.4 8 Norte 17 Norte 0 1006.4 1 90
2019-04-19 10:00:00 12.9 9 Norte 24 Norte 0 1006.5 1.7 93
2019-04-19 09:00:00 12.5 15 Norte 33 Nordeste 0.1 1006 1 94
2019-04-19 08:00:00 12.6 16 Nordeste 33 Norte 0 1005.4 0.5 91
2019-04-19 07:00:00 12.8 18 Norte 35 Norte 0 1004.8 -0.1 91
2019-04-19 06:00:00 12.7 11 Norte 24 Norte 0 1005 -0.3 90
2019-04-19 05:00:00 12.3 8 Norte 21 Norte 0 1004.9 -0.6 92
2019-04-19 04:00:00 12.4 9 Norte 18 Nordeste 0 1004.9 -0.6 89
2019-04-19 03:00:00 12.7 9 Norte 18 Norte 0 1005.3 0 86
2019-04-19 02:00:00 12.8 9 Norte 18 Nordeste 0 1005.5 0.4 81
2019-04-19 01:00:00 12.5 6 Norte 17 Norte 0 1005.5 1.1 82
2019-04-19 00:00:00 13.1 6 Norte 13 Nordeste 0 1005.3 1.9 80
2019-04-18 23:00:00 13.7 5 Norte 11 Norte 0 1005.1 2.4 75
2019-04-18 22:00:00 14.3 5 Nordeste 18 Nordeste 0 1004.4 2.2 71
2019-04-18 21:00:00 15.4 10 Norte 24 Norte 0 1003.4 1.6 70
2019-04-18 20:00:00 15.8 13 Norte 28 Norte 0 1002.7 1 73
2019-04-18 19:00:00 15.9 17 Norte 33 Norte 0 1002.2 0.2 66
2019-04-18 18:00:00 15.3 19 Norte 33 Norte 0 1001.8 0 63
2019-04-18 17:00:00 16.1 15 Norte 32 Norte 0 1001.7 0 65
2019-04-18 16:00:00 15.1 14 Norte 26 Norte 0 1002 0.6 73
2019-04-18 15:00:00 15.7 12 Norte 24 Norte 0 1001.8 0.9 75
2019-04-18 14:00:00 14.5 12 Norte 22 Norte 0 1001.7 1.1 76
2019-04-18 13:00:00 16.2 7 Este 26 Sudeste 0 1001.4 1.4 68
2019-04-18 12:00:00 17.1 5 Sudoeste 21 Sudeste 0 1000.9 1.4 63
2019-04-18 11:00:00 15.5 10 Sudeste 17 Sudeste 0 1000.6 2.1 71
2019-04-18 10:00:00 12.8 5 Nordeste 8 Nordeste 0 1000 2.1 84
2019-04-18 09:00:00 11 0 Calma 11 Sur 0 999.5 2.1 92
2019-04-18 08:00:00 10.1 10 Sur 18 Sudeste 0 998.5 1.2 95
2019-04-18 07:00:00 10.1 4 Sudeste 18 Sudeste 0 997.9 0.7 97
2019-04-18 06:00:00 10.6 4 Sudeste 13 Sudeste 0 997.4 0 97
2019-04-18 05:00:00 10.8 8 Sur 13 Sur 0 997.3 0 97
2019-04-18 04:00:00 11.3 9 Sur 13 Sudeste 0.1 997.2 0 97
2019-04-18 03:00:00 11.3 9 Sur 17 Sur 0 997.4 0.5 97
2019-04-18 02:00:00 11.6 9 Sudeste 13 Sudeste 1.6 997.3 0.7 97
2019-04-18 01:00:00 11.8 8 Sudeste 11 Sudeste 2.2 997.2 1.3 97
2019-04-18 00:00:00 12 3 Noroeste 11 Sudeste 0.4 996.9 1.4 96
2019-04-17 23:00:00 12 3 Este 11 Este 0 996.6 1.7 96
2019-04-17 22:00:00 12.2 7 Este 13 Este 1.1 995.9 1.6 95
2019-04-17 21:00:00 12.7 0 Calma 17 Sur 1.4 995.5 1.8 92
2019-04-17 20:00:00 13.4 12 Sur 24 Sudoeste 0.5 994.9 1.1 85
2019-04-17 19:00:00 14.1 9 Sudoeste 22 Sudoeste 0.4 994.3 0.9 83
2019-04-17 18:00:00 14.7 13 Sudoeste 33 Sudoeste 0 993.7 0.8 78
2019-04-17 17:00:00 15.3 21 Sudoeste 37 Sudoeste 0 993.8 0.7 74
2019-04-17 16:00:00 16.9 21 Sudoeste 33 Sur 0 993.4 0 61
2019-04-17 15:00:00 18.1 24 Sur 41 Sur 0 992.9 -0.9 50
2019-04-17 14:00:00 17.7 25 Sur 45 Sur 0 993.1 -0.9 51
2019-04-17 13:00:00 16.9 22 Sur 37 Sur 0 993.4 -0.6 53
2019-04-17 12:00:00 15.7 19 Sur 35 Sudeste 0 993.8 0 60
2019-04-17 11:00:00 14 11 Sur 24 Sur 0 994 0.3 64
2019-04-17 10:00:00 12.9 5 Sudeste 9 Este 0 994 0.5 70
2019-04-17 09:00:00 12.7 5 Sur 15 Sur 0 993.8 0.5 68
2019-04-17 08:00:00 12 6 Sudeste 17 Sudeste 0 993.7 0.6 73
2019-04-17 07:00:00 13 11 Sur 30 Sudoeste 0 993.5 -0.6 66
2019-04-17 06:00:00 9.9 11 Sur 17 Sur 0 993.3 -1.7 85
2019-04-17 05:00:00 9.8 14 Sur 17 Sur 0 993.1 -3.1 89
2019-04-17 04:00:00 9.9 8 Sur 13 Sur 0 994.1 -3.3 89
2019-04-17 03:00:00 9.9 5 Sur 13 Sur 0 995 -3.3 87
2019-04-17 02:00:00 10.8 9 Sur 13 Sudeste 0 996.2 -2.3 84
2019-04-17 01:00:00 11.4 5 Sur 11 Sur 0 997.4 -1.5 74
2019-04-17 00:00:00 12.7 5 Sudeste 8 Sudeste 0 998.3 -0.6 72
2019-04-16 23:00:00 13.8 0 Calma 8 Oeste 0 998.5 -1 63
2019-04-16 22:00:00 14.7 4 Sudoeste 9 Oeste 0 998.9 -0.8 59
2019-04-16 21:00:00 15.8 4 Oeste 13 Norte 0 998.9 -1.1 57
2019-04-16 20:00:00 16.5 9 Norte 18 Norte 0 999.5 -1.4 58
2019-04-16 19:00:00 17.9 11 Norte 21 Norte 0 999.7 -2.1 53
2019-04-16 18:00:00 17.3 13 Norte 28 Norte 0 1000 -2.5 56
2019-04-16 17:00:00 19.9 6 Sudoeste 22 Sur 0 1000.9 -2.3 45
2019-04-16 16:00:00 19 18 Sudoeste 30 Sur 0 1001.8 -1.7 46
2019-04-16 15:00:00 18.7 13 Sudeste 32 Sur 0 1002.5 -1.5 50
2019-04-16 14:00:00 17 11 Sur 30 Sur 0 1003.2 -1.2 54
2019-04-16 13:00:00 16.9 18 Sur 35 Sudeste 0 1003.5 -1 55
2019-04-16 12:00:00 15.8 17 Sur 30 Sudoeste 0 1004 -0.7 59
2019-04-16 11:00:00 13.9 12 Sudeste 24 Sudeste 0 1004.4 -0.1 66
2019-04-16 10:00:00 11.2 8 Sudeste 17 Sudeste 0 1004.5 0.1 74
2019-04-16 09:00:00 9.3 12 Sur 21 Sur 0 1004.7 -0.1 79
2019-04-16 08:00:00 8.5 12 Sudeste 24 Sudeste 0 1004.5 -0.3 83
2019-04-16 07:00:00 8.6 15 Sudeste 26 Este 0 1004.4 -0.5 85
2019-04-16 06:00:00 8.7 13 Sudeste 24 Sudeste 0 1004.8 -0.4 85
2019-04-16 05:00:00 8.8 14 Sur 22 Sur 0 1004.8 -1 88
2019-04-16 04:00:00 8.4 12 Sudeste 17 Sudeste 0 1004.9 -0.6 89
2019-04-16 03:00:00 9 12 Sudeste 17 Sudeste 0 1005.2 -0.1 88
2019-04-16 02:00:00 9 8 Sur 15 Sudeste 0 1005.8 0.7 88
2019-04-16 01:00:00 9.6 11 Sur 15 Sur 0 1005.5 0.9 85
2019-04-16 00:00:00 10 9 Sudeste 21 Sudeste 0 1005.3 1.9 82
2019-04-15 23:00:00 10.7 14 Sudoeste 21 Sudoeste 0 1005.1 2.5 81
2019-04-15 22:00:00 11.3 9 Sudoeste 21 Sudoeste 0 1004.6 2.3 76
2019-04-15 21:00:00 13.7 9 Oeste 18 Oeste 0 1003.4 2 63
2019-04-15 20:00:00 14.5 9 Noroeste 26 Noroeste 0 1002.6 2.1 65
2019-04-15 19:00:00 14.6 14 Noroeste 39 Noroeste 0 1002.3 2.6 65
2019-04-15 18:00:00 14.6 19 Noroeste 37 Noroeste 0 1001.4 2.2 68
2019-04-15 17:00:00 14.2 21 Noroeste 41 Oeste 0 1000.5 2.3 71
2019-04-15 16:00:00 14.9 20 Oeste 41 Oeste 0 999.7 1.7 71
2019-04-15 15:00:00 13 22 Oeste 39 Oeste 0 999.2 2.1 85
2019-04-15 14:00:00 14.2 18 Noroeste 35 Noroeste 0 998.2 1.9 80
2019-04-15 13:00:00 14.7 23 Sudoeste 37 Sudoeste 0 998 2.6 76
2019-04-15 12:00:00 13.6 22 Sur 45 Sudoeste 0 997.1 2.1 81
2019-04-15 11:00:00 14.3 24 Sudoeste 35 Sudoeste 0 996.3 1.3 76
2019-04-15 10:00:00 14.9 18 Oeste 37 Oeste 1.1 995.4 0.4 85
2019-04-15 09:00:00 15.4 18 Sur 35 Sur 0 995 -0.6 82
2019-04-15 08:00:00 15.3 14 Sur 37 Sudoeste 0 995 -1.2 84
2019-04-15 07:00:00 15.5 18 Sur 37 Sudoeste 0 995 -1.9 85
2019-04-15 06:00:00 15.5 13 Sur 30 Sur 0.1 995.6 -2.4 88
2019-04-15 05:00:00 15.9 9 Sudoeste 15 Sudoeste 1.1 996.2 -2.8 93
2019-04-15 04:00:00 16.4 7 Sur 15 Sur 0 996.9 -2.9 86
2019-04-15 03:00:00 16.6 6 Sur 15 Sur 0 998 -2.3 84
2019-04-15 02:00:00 16.8 6 Sur 18 Sur 0 999 -1.7 83
2019-04-15 01:00:00 17 11 Sur 22 Sur 0 999.8 -1 82
2019-04-15 00:00:00 17.1 12 Sur 21 Sur 0 1000.3 -0.4 82
2019-04-14 23:00:00 16.9 9 Sur 17 Sur 0 1000.7 0.1 85
2019-04-14 22:00:00 17 6 Sur 21 Sudoeste 0 1000.8 0.2 85
2019-04-14 21:00:00 17.4 13 Sudoeste 30 Sudoeste 0 1000.7 -0.1 86
2019-04-14 20:00:00 18.8 20 Sudoeste 41 Sudoeste 0 1000.6 -0.9 77
2019-04-14 19:00:00 20 23 Sudoeste 42 Sudoeste 0 1000.6 -2 72
2019-04-14 18:00:00 21.6 27 Sudoeste 42 Sudoeste 0 1000.8 -2.6 66
2019-04-14 17:00:00 22 25 Sudoeste 39 Sudoeste 0 1001.5 -2.2 64
2019-04-14 16:00:00 22 23 Sudoeste 35 Sudoeste 0 1002.6 -1.5 66
2019-04-14 15:00:00 19.7 15 Sudoeste 28 Sur 0 1003.4 -0.7 75
2019-04-14 14:00:00 18.2 14 Sur 24 Sur 0 1003.7 -0.4 81
2019-04-14 13:00:00 18 14 Sur 26 Sur 0 1004.1 0.5 81
2019-04-14 12:00:00 17.6 15 Sur 24 Sur 0 1004.1 0.4 82
2019-04-14 11:00:00 16.8 13 Sur 32 Sur 0 1004.1 0.9 84
2019-04-14 10:00:00 15.7 16 Sur 28 Sur 0 1003.6 0.5 88
2019-04-14 09:00:00 15.4 20 Sur 33 Sur 0 1003.7 0.1 88
2019-04-14 08:00:00 15.3 25 Sudoeste 39 Sudoeste 0 1003.2 -0.7 87
2019-04-14 07:00:00 14.8 22 Sudoeste 33 Sudoeste 0 1003.1 -1.2 89
2019-04-14 06:00:00 14.5 7 Sudoeste 32 Sudoeste 0 1003.6 -0.7 89
2019-04-14 05:00:00 14.9 13 Sudoeste 24 Sudoeste 0 1003.9 -0.9 88
2019-04-14 04:00:00 14.7 8 Sur 28 Sur 0 1004.3 -1.1 89
2019-04-14 03:00:00 14.8 13 Sur 32 Sudeste 0 1004.3 -1.3 89
2019-04-14 02:00:00 14.9 15 Sur 24 Sur 0 1004.8 -1.1 87
2019-04-14 01:00:00 15.2 3 Sudoeste 18 Sur 0 1005.4 0 84
2019-04-14 00:00:00 15.3 13 Sudoeste 28 Sudoeste 0 1005.6 0.6 83
2019-04-13 23:00:00 15.2 15 Sudoeste 33 Sudoeste 0 1005.9 0.8 82
2019-04-13 22:00:00 15 21 Sudoeste 39 Sudoeste 0 1005.4 0.6 84
2019-04-13 21:00:00 15.5 14 Sudoeste 32 Sudoeste 0 1005 0.2 82
2019-04-13 20:00:00 16 19 Sudoeste 41 Sudoeste 0 1005.1 0.1 79
2019-04-13 19:00:00 17 14 Sudoeste 26 Sudoeste 0 1004.8 -0.4 73
2019-04-13 18:00:00 17.5 22 Sudoeste 41 Sudoeste 0 1004.8 -0.3 71
2019-04-13 17:00:00 18.5 21 Sudoeste 33 Sudoeste 0 1005 -0.4 64
2019-04-13 16:00:00 18.4 13 Sudoeste 28 Oeste 0 1005.2 -0.3 64
2019-04-13 15:00:00 19.5 16 Sudoeste 28 Sudoeste 0 1005.1 -0.5 59
2019-04-13 14:00:00 19.2 11 Sur 22 Sudoeste 0 1005.4 -0.1 52
2019-04-13 13:00:00 18.9 4 Sur 22 Sur 0 1005.5 -0.1 48
2019-04-13 12:00:00 17.4 13 Sudeste 33 Sudeste 0 1005.6 0 47
2019-04-13 11:00:00 15.9 14 Sudeste 24 Sudeste 0 1005.5 -0.2 54
2019-04-13 10:00:00 13.5 15 Sur 22 Sudeste 0 1005.6 0.2 63
2019-04-13 09:00:00 11.7 11 Sur 18 Sur 0 1005.6 0 70
2019-04-13 08:00:00 10.8 9 Sur 17 Sur 0 1005.7 -0.2 73
2019-04-13 07:00:00 10.2 12 Sur 26 Sudeste 0 1005.4 -1 77
2019-04-13 06:00:00 10.1 11 Sur 15 Sur 0 1005.6 -1.1 76
2019-04-13 05:00:00 9.1 13 Sur 17 Sur 0 1005.9 -1.5 83
2019-04-13 04:00:00 8.8 13 Sur 17 Sur 0 1006.4 -0.9 84
2019-04-13 03:00:00 8.8 12 Sur 15 Sur 0 1006.7 -0.6 84
2019-04-13 02:00:00 8.9 6 Sur 15 Sur 0 1007.4 0 85
2019-04-13 01:00:00 9.9 6 Sur 17 Sudeste 0 1007.3 0.2 81
2019-04-13 00:00:00 10.5 6 Sur 17 Sudeste 0 1007.3 0.7 80
2019-04-12 23:00:00 11.6 4 Sudoeste -- -- 0 1007.4 0.9 75
2019-04-12 22:00:00 12 0 Calma 4 Este 0 1007.1 0.7 70
2019-04-12 21:00:00 13 3 Norte 9 Norte 0 1006.6 0.1 67
2019-04-12 20:00:00 13.6 6 Norte 13 Norte 0 1006.5 -0.4 66
2019-04-12 19:00:00 14.9 10 Nordeste 21 Nordeste 0 1006.4 -0.9 60
2019-04-12 18:00:00 17 11 Norte 26 Norte 0 1006.5 -1.1 45
2019-04-12 17:00:00 16.5 14 Noroeste 28 Oeste 0 1006.9 -0.9 43
2019-04-12 16:00:00 16.3 16 Norte 26 Norte 0 1007.3 -0.9 55
2019-04-12 15:00:00 15.9 13 Norte 22 Norte 0 1007.6 -0.7 63
2019-04-12 14:00:00 18.1 10 Sudoeste 17 Sudoeste 0 1007.8 -0.4 42
2019-04-12 13:00:00 16.7 5 Sur 24 Sur 0 1008.2 -0.3 55
2019-04-12 12:00:00 13.9 7 Sudeste 21 Sur 0 1008.3 -0.3 68
2019-04-12 11:00:00 10.8 11 Sudeste 15 Sudeste 0 1008.2 -0.4 77
2019-04-12 10:00:00 6.5 6 Sur 18 Sur 0 1008.5 -0.1 97
2019-04-12 09:00:00 3.4 9 Sur 18 Sur 0 1008.6 -0.1 98
2019-04-12 08:00:00 2.9 10 Sur 15 Sur 0 1008.6 -0.2 98
2019-04-12 07:00:00 3.2 11 Sur 15 Sur 0 1008.6 -0.6 98
2019-04-12 06:00:00 3.8 6 Sur 13 Sur 0 1008.7 -1 98
2019-04-12 05:00:00 4.3 11 Sur 17 Sur 0 1008.8 -0.8 97
2019-04-12 04:00:00 5.3 9 Sur 11 Sur 0 1009.2 -0.7 96
2019-04-12 03:00:00 6.4 7 Sur 11 Sur 0 1009.7 -0.1 96
2019-04-12 02:00:00 6.8 9 Sur 11 Sur 0 1009.6 -0.4 96
2019-04-12 01:00:00 7.7 6 Sur 9 Sur 0 1009.9 0 93
2019-04-12 00:00:00 9.6 0 Calma 8 Sur 0 1009.8 0.2 88
2019-04-11 23:00:00 10.3 4 Noroeste 9 Norte 0 1010 0.2 86
2019-04-11 22:00:00 11 4 Noroeste 9 Norte 0 1009.9 0.1 85
2019-04-11 21:00:00 12.4 7 Norte 21 Norte 0 1009.6 -0.2 78
2019-04-11 20:00:00 12.8 12 Norte 32 Norte 0 1009.8 0 75
2019-04-11 19:00:00 13.3 18 Norte 30 Norte 0 1009.8 -0.3 70
2019-04-11 18:00:00 13.8 18 Norte 32 Norte 0 1009.8 -0.6 63
2019-04-11 17:00:00 13.7 16 Norte 28 Norte 0 1009.8 -0.8 69
2019-04-11 16:00:00 13.6 17 Norte 30 Norte 0 1010.1 -0.9 70
2019-04-11 15:00:00 13.8 14 Norte 26 Nordeste 0 1010.4 -0.6 70
2019-04-11 14:00:00 14.3 12 Norte 22 Nordeste 0 1010.6 -0.1 63
2019-04-11 13:00:00 14.3 5 Este 13 Este 0 1011 0.3 62
2019-04-11 12:00:00 12.6 0 Calma 11 Este 0 1011 0.4 77
2019-04-11 11:00:00 8.8 6 Sur 13 Sur 0 1010.7 0.7 98
2019-04-11 10:00:00 5.9 7 Sur 11 Sur 0 1010.7 0.8 98
2019-04-11 09:00:00 4.3 8 Sur 13 Sur 0 1010.6 0.5 99
2019-04-11 08:00:00 4.1 10 Sur 13 Sur 0 1010 -0.1 98
2019-04-11 07:00:00 4.5 8 Sur 11 Sur 0 1009.9 -0.1 98
2019-04-11 06:00:00 5 8 Sur 13 Sur 0 1010.1 0 98
2019-04-11 05:00:00 4.8 9 Sur 13 Sur 0 1010.1 0 98
2019-04-11 04:00:00 5.9 11 Sur 13 Sur 0 1010 -0.1 97
2019-04-11 03:00:00 6.6 7 Sur 9 Sur 0 1010.1 0 96
2019-04-11 02:00:00 7.2 8 Sur 11 Sur 0 1010.1 -0.1 95
2019-04-11 01:00:00 9 0 Calma 13 Sur 0 1010.1 0.5 91
2019-04-11 00:00:00 9.6 0 Calma 9 Norte 0 1010.1 1.2 89
2019-04-10 23:00:00 10.7 6 Norte 13 Norte 0 1010.2 1.7 84
2019-04-10 22:00:00 11.1 9 Norte 18 Norte 0 1009.6 1.4 82
2019-04-10 21:00:00 11.7 10 Norte 22 Norte 0 1008.9 1.2 81
2019-04-10 20:00:00 12.1 12 Norte 26 Noroeste 0 1008.5 1 79
2019-04-10 19:00:00 12.8 17 Norte 30 Noroeste 0 1008.2 0.8 71
2019-04-10 18:00:00 13.6 21 Norte 35 Norte 0 1007.7 0.6 72
2019-04-10 17:00:00 13.9 18 Norte 33 Norte 0 1007.5 0.5 71
2019-04-10 16:00:00 13.8 21 Norte 33 Norte 0 1007.4 0.5 70
2019-04-10 15:00:00 14.1 21 Norte 32 Norte 0 1007.1 0.7 69
2019-04-10 14:00:00 13.9 17 Norte 32 Norte 0 1007 1 72
2019-04-10 13:00:00 13.4 19 Norte 32 Norte 0 1006.9 1.6 76
2019-04-10 12:00:00 12.5 18 Norte 33 Norte 0 1006.4 1.7 80
2019-04-10 11:00:00 11.7 17 Norte 35 Norte 0 1006 2 81
2019-04-10 10:00:00 11.6 21 Norte 35 Norte 0 1005.3 1.9 82
2019-04-10 09:00:00 10.9 19 Norte 37 Norte 0.2 1004.7 1.5 89
2019-04-10 08:00:00 11 22 Noroeste 37 Norte 0 1004 1.1 84
2019-04-10 07:00:00 10.9 22 Noroeste 39 Norte 0 1003.4 0.6 86
2019-04-10 06:00:00 10.6 24 Noroeste 41 Norte 0.2 1003.2 0.5 84
2019-04-10 05:00:00 10.8 22 Noroeste 42 Noroeste 0 1002.9 0.2 81
2019-04-10 04:00:00 10.7 13 Noroeste 33 Noroeste 0 1002.8 0.5 84
2019-04-10 03:00:00 10.6 18 Noroeste 35 Noroeste 0 1002.7 0.6 82
2019-04-10 02:00:00 10.5 12 Noroeste 33 Oeste 0 1002.7 1 83
2019-04-10 01:00:00 10.6 17 Noroeste 32 Noroeste 0 1002.3 1.1 84
2019-04-10 00:00:00 10.1 12 Noroeste 42 Noroeste 1.4 1002.1 1.8 87
2019-04-09 23:00:00 10.8 17 Noroeste 32 Noroeste 0 1001.7 2.2 87
2019-04-09 22:00:00 10.4 10 Noroeste 54 Oeste 1.1 1001.2 2.3 88
2019-04-09 21:00:00 10.5 21 Noroeste 52 Oeste 1 1000.3 1.6 91
2019-04-09 20:00:00 10.9 25 Oeste 59 Oeste 0.4 999.5 1.2 90
2019-04-09 19:00:00 10.6 18 Oeste 50 Noroeste 1.7 998.9 0.3 84
2019-04-09 18:00:00 11.7 23 Oeste 48 Noroeste 2.6 998.7 0.7 79
2019-04-09 17:00:00 13.3 23 Oeste 46 Noroeste 0 998.3 0.2 69
2019-04-09 16:00:00 12.2 24 Oeste 46 Oeste 0.5 998.6 0 79
2019-04-09 15:00:00 13.1 23 Oeste 54 Sudoeste 0.1 998 -0.6 70
2019-04-09 14:00:00 13.2 18 Oeste 42 Oeste 0 998.1 -0.2 64
2019-04-09 13:00:00 12.4 16 Oeste 39 Sudoeste 0 998.6 0.5 70
2019-04-09 12:00:00 11.1 15 Sudoeste 48 Oeste 1.9 998.6 0.6 80
2019-04-09 11:00:00 11.4 17 Oeste 37 Sudoeste 0 998.3 1.3 75
2019-04-09 10:00:00 8.7 11 Sudoeste 28 Sur 0.1 998.1 1.2 87
2019-04-09 09:00:00 8.3 13 Sudoeste 28 Oeste 0.4 998 1.1 90
2019-04-09 08:00:00 7.1 16 Sudoeste 39 Oeste 0.2 997 0.7 87
2019-04-09 07:00:00 7.8 15 Sudoeste 30 Oeste 1.5 996.9 0.9 85
2019-04-09 06:00:00 9.1 23 Oeste 48 Oeste 1 996.9 0.8 86
2019-04-09 05:00:00 8.9 15 Sudoeste 30 Oeste 2.1 996.3 0.2 87
2019-04-09 04:00:00 9.4 11 Sudoeste 21 Sur 0.3 996 -0.1 88
2019-04-09 03:00:00 9.1 8 Sur 21 Sur 0 996.1 -0.4 90
2019-04-09 02:00:00 8.6 10 Sudeste 17 Sudeste 0.1 996.1 -0.8 91
2019-04-09 01:00:00 8.5 13 Sur 21 Sur 0 996.1 -0.6 91
2019-04-09 00:00:00 8.5 12 Sur 33 Sur 0 996.5 0.1 90
2019-04-08 23:00:00 9.1 22 Sur 37 Sur 0 996.9 0.9 85
2019-04-08 22:00:00 9.6 15 Sur 39 Sudoeste 2 996.7 -0.2 85
2019-04-08 21:00:00 10.8 24 Sudoeste 50 Sudoeste 0.9 996.4 -0.9 83
2019-04-08 20:00:00 12.3 24 Sur 48 Sudoeste 0 996 -1.5 74
2019-04-08 19:00:00 11.2 16 Sur 52 Sudoeste 0.5 996.9 -1.1 77
2019-04-08 18:00:00 13.1 28 Sudoeste 55 Sudoeste 0.2 997.3 -0.9 70
2019-04-08 17:00:00 13 30 Sudoeste 67 Sur 0.2 997.5 -0.6 68
2019-04-08 16:00:00 12.5 33 Sudoeste 61 Sudoeste 0.3 998 -0.5 74
2019-04-08 15:00:00 13.9 34 Sur 54 Sur 0 998.2 -0.4 62
2019-04-08 14:00:00 15.7 32 Sudoeste 52 Sudoeste 0 998.1 -0.7 50
2019-04-08 13:00:00 14.1 27 Sudoeste 46 Sudoeste 0 998.5 -0.3 62
2019-04-08 12:00:00 13.6 26 Sudoeste 46 Sur 0 998.6 0 62
2019-04-08 11:00:00 12.1 20 Sudoeste 33 Sur 0 998.8 0.7 73
2019-04-08 10:00:00 10.7 12 Sur 21 Sur 0 998.8 0.8 77
2019-04-08 09:00:00 8.6 13 Sur 24 Sur 0 998.6 0.8 83
2019-04-08 08:00:00 7.5 12 Sur 17 Sudoeste 0 998.1 0.5 86
2019-04-08 07:00:00 8.4 12 Sudoeste 21 Sudoeste 0 998 0.8 81
2019-04-08 06:00:00 9.2 9 Sudoeste 18 Sudoeste 0 997.8 1.1 84
2019-04-08 05:00:00 9.5 12 Sudoeste 21 Sudoeste 0 997.6 1.4 84
2019-04-08 04:00:00 10.1 14 Sudoeste 32 Oeste 0 997.2 1.6 86
2019-04-08 03:00:00 10.7 11 Oeste 22 Oeste 0 996.7 1.9 89
2019-04-08 02:00:00 10.8 17 Oeste 30 Oeste 0.3 996.2 2.3 88
2019-04-08 01:00:00 10.8 20 Oeste 30 Oeste 0.3 995.6 2.1 91
2019-04-08 00:00:00 10.8 15 Oeste 32 Oeste 3.1 994.8 1.7 92
2019-04-07 23:00:00 11.3 9 Sur 28 Sur 0 993.9 0.6 91
2019-04-07 22:00:00 11.3 19 Sur 32 Sur 0 993.5 0.4 88
2019-04-07 21:00:00 11 19 Sur 37 Sur 0 993.1 -0.9 85
2019-04-07 20:00:00 10.8 26 Sur 42 Sur 0 993.3 -1.1 84
2019-04-07 19:00:00 9.6 15 Sudeste 45 Sudeste 1 993.1 -2.1 90
2019-04-07 18:00:00 9.3 26 Sur 45 Sudeste 1.8 994 -1.4 89
2019-04-07 17:00:00 9.7 21 Sudeste 33 Sudeste 1.1 994.4 -1.6 87
2019-04-07 16:00:00 10.5 24 Sur 48 Sur 0.4 995.2 -1 80
2019-04-07 15:00:00 13.1 28 Sur 48 Sur 0 995.4 -1.1 63
2019-04-07 14:00:00 12.7 21 Sur 39 Sur 0 996 -0.4 63
2019-04-07 13:00:00 12 22 Sur 35 Sur 0 996.2 -0.5 70
2019-04-07 12:00:00 11.9 15 Sur 26 Sur 0 996.5 -0.1 73
2019-04-07 11:00:00 9.3 14 Sudeste 18 Sudeste 0 996.4 0.1 82
2019-04-07 10:00:00 7.9 12 Sudeste 18 Sur 0 996.7 0.8 85
2019-04-07 09:00:00 5.5 14 Sur 21 Sur 0 996.6 1 89
2019-04-07 08:00:00 4.6 15 Sur 21 Sudoeste 0 996.3 1.1 93
2019-04-07 07:00:00 5.1 14 Sur 21 Sur 0 995.9 1 91
2019-04-07 06:00:00 4.3 15 Sur 18 Sur 0 995.6 0.7 95
2019-04-07 05:00:00 4.7 13 Sur 17 Sur 0 995.2 0.4 95
2019-04-07 04:00:00 5.2 12 Sur 18 Sur 0 994.9 0.7 92
2019-04-07 03:00:00 5.6 8 Sudeste 21 Sudoeste 0.2 994.9 1.2 91
2019-04-07 02:00:00 6.6 10 Sur 26 Oeste 0 994.8 1.4 81
2019-04-07 01:00:00 6.4 5 Sur 24 Oeste 0 994.2 1.2 82
2019-04-07 00:00:00 7.5 12 Oeste 26 Oeste 0 993.7 1.3 78
2019-04-06 23:00:00 8 15 Oeste 26 Oeste 0 993.4 1.6 77
2019-04-06 22:00:00 7.6 16 Oeste 28 Oeste 0 993 1.9 82
2019-04-06 21:00:00 8.1 17 Oeste 28 Noroeste 0 992.4 1.5 80
2019-04-06 20:00:00 10.4 17 Noroeste 35 Noroeste 0 991.8 1.8 68
2019-04-06 19:00:00 11.4 18 Noroeste 45 Oeste 0 991.1 1.7 66
2019-04-06 18:00:00 10.9 27 Noroeste 48 Noroeste 0 990.9 1.8 63
2019-04-06 17:00:00 11.7 28 Noroeste 50 Noroeste 0 990 2 63
2019-04-06 16:00:00 10.9 33 Noroeste 58 Noroeste 0.6 989.4 2.2 68
2019-04-06 15:00:00 8.2 21 Noroeste 59 Noroeste 1.5 989.1 2.9 88
2019-04-06 14:00:00 9.7 27 Noroeste 45 Noroeste 0.8 988 3 80
2019-04-06 13:00:00 9.2 23 Noroeste 41 Norte 0.6 987.2 3 82
2019-04-06 12:00:00 7.3 27 Noroeste 46 Noroeste 3.6 986.2 2.9 89
2019-04-06 11:00:00 8.2 21 Norte 33 Noroeste 2.5 985 2.4 88
2019-04-06 10:00:00 7.6 16 Sudoeste 24 Sudoeste 0.2 984.2 2 89
2019-04-06 09:00:00 6.5 17 Sudoeste 26 Sudoeste 0.3 983.3 0.9 90
2019-04-06 08:00:00 6.4 16 Sudoeste 30 Sur 0 982.6 -0.7 88
2019-04-06 07:00:00 6.7 19 Sur 30 Sur 0.5 982.2 -1.8 89
2019-04-06 06:00:00 6.1 14 Sur 30 Sur 0.5 982.4 -2.8 91
2019-04-06 05:00:00 6 15 Sudeste 28 Sudoeste 1.5 983.3 -2.6 91
2019-04-06 04:00:00 6.3 18 Sur 32 Sur 0 984 -2.7 87
2019-04-06 03:00:00 6.3 12 Sur 30 Sur 0.2 985.2 -2 90
2019-04-06 02:00:00 6.5 22 Sur 35 Sur 0 985.9 -2 85
2019-04-06 01:00:00 6.7 20 Sudoeste 33 Sudoeste 0.4 986.7 -0.3 87
2019-04-06 00:00:00 6.6 13 Sudoeste 24 Sudoeste 1.5 987.2 0.2 91
2019-04-05 23:00:00 7.5 15 Oeste 37 Sudoeste 1.7 987.9 1 85
2019-04-05 22:00:00 6.8 9 Sur 18 Sur 0 987 0.4 90
2019-04-05 21:00:00 7.2 14 Sur 24 Sudoeste 0 987 1 87
2019-04-05 20:00:00 8.3 22 Sudoeste 30 Sudoeste 0.3 986.9 1.1 85
2019-04-05 19:00:00 9.5 17 Sur 37 Sudoeste 0.9 986.6 1 80
2019-04-05 18:00:00 9.4 14 Sudoeste 22 Sudoeste 0 986 0.8 80
2019-04-05 17:00:00 8.7 13 Sur 35 Sudoeste 1.6 985.8 1.1 81
2019-04-05 16:00:00 9.1 14 Sudoeste 28 Sudoeste 0 985.6 1.4 82
2019-04-05 15:00:00 8.3 17 Sudoeste 41 Sudoeste 0.7 985.2 1.2 82
2019-04-05 14:00:00 9.2 22 Sudoeste 50 Sudoeste 0.5 984.7 1 79
2019-04-05 13:00:00 9.2 27 Sudoeste 41 Sudoeste 0.1 984.2 0.8 81
2019-04-05 12:00:00 8.8 21 Sur 42 Sudoeste 0 984 0.7 74
2019-04-05 11:00:00 7.2 17 Sudoeste 30 Sur 0 983.7 0.2 79
2019-04-05 10:00:00 6.2 18 Sur 30 Sur 0 983.4 0.1 81
2019-04-05 09:00:00 5 13 Sur 26 Sudeste 0 983.3 -0.2 85
2019-04-05 08:00:00 3.9 15 Sur 30 Sur 0 983.5 -0.2 88
2019-04-05 07:00:00 4.3 15 Sur 24 Sur 0 983.3 -0.8 87
2019-04-05 06:00:00 4.6 15 Sur 26 Sur 0 983.5 -0.5 83
2019-04-05 05:00:00 5.1 15 Sur 32 Sudoeste 0 983.7 -0.7 83
2019-04-05 04:00:00 6.2 22 Sudoeste 32 Sudoeste 0 984.1 -0.2 77
2019-04-05 03:00:00 6.1 14 Sudoeste 24 Sudoeste 0 984 -0.4 84
2019-04-05 02:00:00 5.9 17 Sudoeste 21 Sudoeste 0 984.4 -0.2 86
2019-04-05 01:00:00 6.5 15 Sudoeste 18 Sudoeste 0 984.3 -0.3 88
2019-04-05 00:00:00 6.7 15 Sudoeste 21 Sudoeste 0 984.4 0 86
2019-04-04 23:00:00 7.4 14 Sudoeste 21 Sudoeste 0 984.6 -0.3 85
2019-04-04 22:00:00 8.1 13 Oeste 28 Noroeste 0 984.6 -0.7 80
2019-04-04 21:00:00 8.9 10 Sudoeste 21 Sudoeste 0 984.4 -0.9 89
2019-04-04 20:00:00 8.9 12 Sur 21 Sur 0.3 984.9 -1.3 91
2019-04-04 19:00:00 8.7 12 Sudoeste 52 Sudoeste 2.1 985.3 -1.7 92
2019-04-04 18:00:00 9.3 28 Sudoeste 45 Sur 2.3 985.3 -2.3 86
2019-04-04 17:00:00 9.4 24 Sudoeste 45 Sudoeste 1.2 986.2 -2.3 85
2019-04-04 16:00:00 9.8 23 Sudoeste 46 Sudoeste 0.4 987 -2.6 83
2019-04-04 15:00:00 10.5 27 Sudoeste 52 Sur 0 987.6 -3 76
2019-04-04 14:00:00 10.1 30 Sudoeste 50 Sudoeste 0 988.5 -3 77
2019-04-04 13:00:00 10.2 28 Sur 45 Sudoeste 0 989.6 -2.8 72
2019-04-04 12:00:00 9.8 24 Sudoeste 39 Sudoeste 0 990.6 -2.3 75
2019-04-04 11:00:00 8.3 23 Sur 35 Sur 0 991.5 -2 80
2019-04-04 10:00:00 6.7 23 Sudoeste 33 Sudoeste 0 992.4 -1.4 82
2019-04-04 09:00:00 5.7 22 Sudoeste 28 Sudoeste 0 992.9 -2 86
2019-04-04 08:00:00 4.8 15 Sudoeste 24 Sur 0 993.5 -1.8 89
2019-04-04 07:00:00 5 15 Sudoeste 32 Oeste 0.1 993.8 -2.3 90
2019-04-04 06:00:00 6.2 26 Oeste 41 Oeste 0.1 994.9 -2 84
2019-04-04 05:00:00 6.7 10 Oeste 13 Oeste 0 995.3 -2.5 82
2019-04-04 04:00:00 7.7 8 Noroeste 28 Norte 0 996.1 -2.2 71
2019-04-04 03:00:00 7.4 5 Oeste 18 Oeste 0 996.9 -1.9 77
2019-04-04 02:00:00 7.9 8 Oeste 30 Norte 0 997.8 -1.5 73
2019-04-04 01:00:00 8.3 9 Norte 32 Norte 0 998.3 -1.2 63
2019-04-04 00:00:00 8.9 17 Norte 32 Norte 0 998.8 -0.5 62
2019-04-03 23:00:00 8 9 Noroeste 21 Norte 0 999.3 -0.2 72
2019-04-03 22:00:00 8.1 6 Noroeste 22 Norte 0 999.5 0 75
2019-04-03 21:00:00 8.7 15 Norte 33 Norte 0 999.3 -0.5 68
2019-04-03 20:00:00 7.5 19 Norte 46 Noroeste 0 999.5 -0.8 76
2019-04-03 19:00:00 10.5 26 Norte 48 Norte 0 999.5 -1.2 58
2019-04-03 18:00:00 10.7 26 Norte 48 Norte 0.1 999.8 -1.1 59
2019-04-03 17:00:00 11.1 28 Norte 48 Oeste 0 1000.3 -0.8 54
2019-04-03 16:00:00 8.5 24 Norte 58 Norte 0.1 1000.7 -1.1 79
2019-04-03 15:00:00 10.5 30 Norte 50 Norte 0 1000.9 -1.3 55
2019-04-03 14:00:00 10.8 32 Norte 52 Norte 0 1001.1 -1 55
2019-04-03 13:00:00 8.9 22 Noroeste 48 Noroeste 0 1001.8 -0.4 72
2019-04-03 12:00:00 8 13 Noroeste 52 Norte 0.7 1002.2 -0.2 86
2019-04-03 11:00:00 8.1 25 Norte 48 Noroeste 0 1002.1 -0.3 78
2019-04-03 10:00:00 8.3 15 Norte 54 Noroeste 0 1002.2 -0.3 77
2019-04-03 09:00:00 8.2 14 Norte 37 Noroeste 0 1002.4 -0.4 75
2019-04-03 08:00:00 7.6 13 Noroeste 39 Noroeste 0.1 1002.4 -1.1 78
2019-04-03 07:00:00 8.4 15 Noroeste 32 Norte 0 1002.5 -1.5 68
2019-04-03 06:00:00 8.7 19 Noroeste 33 Norte 0 1002.8 -1.9 69
2019-04-03 05:00:00 8.6 20 Norte 33 Norte 0 1003.5 -1.7 74
2019-04-03 04:00:00 8.6 24 Norte 37 Noroeste 0 1004 -1.8 79
2019-04-03 03:00:00 7.9 9 Noroeste 32 Norte 0.8 1004.7 -1.4 90
2019-04-03 02:00:00 9.5 11 Norte 26 Norte 0 1005.2 -1.1 72
2019-04-03 01:00:00 8.9 10 Noroeste 28 Noroeste 0 1005.8 -0.3 79
2019-04-03 00:00:00 9.9 12 Noroeste 30 Norte 0 1006.1 0.1 69
2019-04-02 23:00:00 10 15 Norte 30 Norte 0 1006.3 0.4 66
2019-04-02 22:00:00 10.3 17 Norte 28 Norte 0 1006.1 0 69
2019-04-02 21:00:00 10.1 12 Norte 35 Norte 0 1006 -0.2 78
2019-04-02 20:00:00 10.9 15 Norte 30 Norte 0 1005.9 -0.7 73
2019-04-02 19:00:00 11.7 18 Norte 35 Norte 0 1006.1 -0.4 68
2019-04-02 18:00:00 12.9 15 Norte 30 Norte 0 1006.2 -0.8 62
2019-04-02 17:00:00 12.8 18 Norte 33 Norte 0 1006.6 -0.8 61
2019-04-02 16:00:00 12.9 17 Norte 30 Norte 0 1006.5 -1 66
2019-04-02 15:00:00 13 15 Norte 30 Norte 0 1007 -0.3 65
2019-04-02 14:00:00 13 18 Norte 30 Norte 0 1007.4 0.1 66
2019-04-02 13:00:00 12.1 18 Norte 28 Norte 0 1007.5 0.5 72
2019-04-02 12:00:00 12.3 10 Norte 21 Norte 0 1007.3 0.6 71
2019-04-02 11:00:00 11.6 13 Norte 22 Norte 0 1007.3 0.8 80
2019-04-02 10:00:00 11.6 6 Norte 18 Norte 0 1007 0.7 78
2019-04-02 09:00:00 11.4 11 Norte 18 Norte 0 1006.7 0.5 78
2019-04-02 08:00:00 11.5 10 Norte 22 Norte 0 1006.5 0.6 78
2019-04-02 07:00:00 11.5 13 Norte 28 Norte 0 1006.3 0.3 80
2019-04-02 06:00:00 11.5 13 Norte 22 Norte 0 1006.2 0 78
2019-04-02 05:00:00 11.6 13 Norte 24 Norte 0 1005.9 -0.2 82
2019-04-02 04:00:00 11.7 8 Norte 15 Norte 0 1006 0 81
2019-04-02 03:00:00 11.7 9 Norte 17 Norte 0 1006.2 0.7 82
2019-04-02 02:00:00 11.9 12 Norte 18 Norte 0 1006.1 0.9 85
2019-04-02 01:00:00 11 9 Noroeste 18 Norte 0 1006 1.8 90
2019-04-02 00:00:00 11 5 Oeste 15 Norte 0 1005.5 2.3 91
2019-04-01 23:00:00 12 12 Norte 26 Norte 0 1005.2 2.6 92
2019-04-01 22:00:00 12.8 14 Norte 26 Noroeste 0 1004.2 2.3 86
2019-04-01 21:00:00 13.8 13 Norte 26 Noroeste 0 1003.2 1.7 80
2019-04-01 20:00:00 15.2 15 Norte 32 Norte 0 1002.6 1.3 74
2019-04-01 19:00:00 16.3 18 Norte 32 Norte 0 1001.9 0.6 69
2019-04-01 18:00:00 17.8 20 Norte 37 Noroeste 0 1001.5 0 56
2019-04-01 17:00:00 18.6 18 Norte 41 Norte 0 1001.3 -0.6 53
2019-04-01 16:00:00 18.7 22 Norte 35 Norte 0 1001.3 -1.1 54
2019-04-01 15:00:00 20.3 14 Norte 24 Noroeste 0 1001.5 -0.9 47
2019-04-01 14:00:00 19.4 12 Norte 18 Norte 0 1001.9 -- 42
2019-04-01 13:00:00 17.4 9 Norte 17 Norte 0 1002.4 -- 43
2019-04-01 12:00:00 16 7 Norte -- -- -- 1002.4 -- 47
2019-04-01 11:00:00 -- -- -- -- -- -- -- -- --
2019-04-01 10:00:00 -- -- -- -- -- -- -- -- --
2019-04-01 09:00:00 -- -- -- -- -- -- -- -- --
2019-04-01 08:00:00 -- -- -- -- -- -- -- -- --
2019-04-01 07:00:00 -- -- -- -- -- -- -- -- --
2019-04-01 06:00:00 -- -- -- -- -- -- -- -- --
2019-04-01 05:00:00 -- -- -- -- -- -- -- -- --
2019-04-01 04:00:00 -- -- -- -- -- -- -- -- --
2019-04-01 03:00:00 -- -- -- -- -- -- -- -- --
2019-04-01 02:00:00 -- -- -- -- -- -- -- -- --
2019-04-01 01:00:00 -- -- -- -- -- -- -- -- --
2019-04-01 00:00:00 -- -- -- -- -- -- -- -- --
2019-03-31 23:00:00 -- -- -- -- -- -- -- -- --
2019-03-31 22:00:00 -- -- -- -- -- -- -- -- --
2019-03-31 21:00:00 -- -- -- -- -- -- -- -- --
2019-03-31 20:00:00 -- -- -- -- -- -- -- -- --
2019-03-31 19:00:00 -- -- -- -- -- -- -- -- --
2019-03-31 18:00:00 -- -- -- -- -- -- -- -- --
2019-03-31 17:00:00 -- -- -- -- -- -- -- -- --
2019-03-31 16:00:00 -- -- -- -- -- -- -- -- --
2019-03-31 15:00:00 -- -- -- -- -- -- -- -- --
2019-03-31 14:00:00 -- -- -- -- -- -- -- -- --
2019-03-31 13:00:00 -- -- -- -- -- -- -- -- --
2019-03-31 12:00:00 -- -- -- -- -- -- -- -- --
2019-03-31 11:00:00 -- -- -- -- -- -- -- -- --
2019-03-31 10:00:00 -- -- -- -- -- -- -- -- --
2019-03-31 09:00:00 -- -- -- -- -- -- -- -- --
2019-03-31 08:00:00 -- -- -- -- -- -- -- -- --
2019-03-31 07:00:00 -- -- -- -- -- -- -- -- --
2019-03-31 06:00:00 -- -- -- -- -- -- -- -- --
2019-03-31 05:00:00 -- -- -- -- -- -- -- -- --
2019-03-31 03:00:00 -- -- -- -- -- -- -- -- --
2019-03-31 01:00:00 -- -- -- -- -- -- -- -- --
2019-03-31 00:00:00 -- -- -- -- -- -- -- -- --
2019-03-30 23:00:00 -- -- -- -- -- -- -- -- --
2019-03-30 22:00:00 -- -- -- -- -- -- -- -- --
2019-03-30 21:00:00 -- -- -- -- -- -- -- -- --
2019-03-30 20:00:00 -- -- -- -- -- -- -- -- --
2019-03-30 19:00:00 -- -- -- -- -- -- -- -- --
2019-03-30 18:00:00 -- -- -- -- -- -- -- -- --
2019-03-30 17:00:00 -- -- -- -- -- -- -- -- --
2019-03-30 16:00:00 14.6 19 Noroeste 30 Norte 0 1004.6 -0.8 75
2019-03-30 15:00:00 15.1 13 Norte 26 Nordeste 0 1004.6 -1.3 74
2019-03-30 14:00:00 15 15 Norte 26 Norte 0 1005 -1.2 75
2019-03-30 13:00:00 14.7 17 Norte 22 Norte 0 1005.4 -0.8 66
2019-03-30 12:00:00 15.4 9 Norte 13 Norte 0 1005.9 -0.4 49
2019-03-30 11:00:00 14.5 7 Norte 11 Norte 0 1006.2 0.2 51
2019-03-30 10:00:00 12.1 6 Sur 11 Sur 0 1006.2 0.5 62
2019-03-30 09:00:00 7.9 8 Sur 13 Sur 0 1006.3 0.7 74
2019-03-30 08:00:00 5.5 8 Sur 21 Sur 0 1006 0.3 83
2019-03-30 07:00:00 5.3 10 Sur 26 Sur 0 1005.7 -0.3 84
2019-03-30 06:00:00 5.3 12 Sur 15 Sur 0 1005.6 -0.7 87
2019-03-30 05:00:00 5.5 11 Sur 15 Sur 0 1005.7 -0.8 86
2019-03-30 04:00:00 6.4 10 Sur 13 Sur 0 1006 -0.9 85
2019-03-30 03:00:00 7 13 Sur 15 Sur 0 1006.3 -0.9 83
2019-03-30 02:00:00 7.2 10 Sur 13 Sur 0 1006.5 -0.9 83
2019-03-30 01:00:00 7.3 6 Sur 13 Sur 0 1006.9 -0.6 82
2019-03-30 00:00:00 8.8 10 Sur 22 Sur 0 1007.2 -0.2 78
2019-03-29 23:00:00 9.9 13 Sur 17 Sur 0 1007.4 0.2 71
2019-03-29 22:00:00 11.6 6 Sur 13 Sur 0 1007.5 0.5 63
2019-03-29 21:00:00 13.9 4 Sudoeste -- -- 0 1007.4 0.6 48
2019-03-29 20:00:00 15.1 3 Oeste 15 Noroeste 0 1007.2 0.5 48
2019-03-29 19:00:00 17.1 10 Noroeste 24 Noroeste 0 1007 -0.1 43
2019-03-29 18:00:00 18.1 13 Noroeste 28 Noroeste 0 1006.8 -0.7 41
2019-03-29 17:00:00 18.9 17 Noroeste 33 Noroeste 0 1006.7 -1.3 41
2019-03-29 16:00:00 19.8 16 Noroeste 30 Noroeste 0 1007.1 -1.2 41
2019-03-29 15:00:00 19.5 11 Norte 21 Norte 0 1007.5 -1.4 48
2019-03-29 14:00:00 19 12 Nordeste 22 Norte 0 1008 -1.4 52
2019-03-29 13:00:00 20.3 6 Nordeste 13 Nordeste 0 1008.3 -1.4 43
2019-03-29 12:00:00 19.3 5 Sudeste 18 Sudeste 0 1008.9 -0.9 45
2019-03-29 11:00:00 16.9 6 Sudeste 11 Sudeste 0 1009.4 -0.4 54
2019-03-29 10:00:00 13.3 5 Sudeste 18 Este 0 1009.7 -0.2 63
2019-03-29 09:00:00 8.5 11 Sur 24 Sudeste 0 1009.8 -0.2 78
2019-03-29 08:00:00 5.1 12 Sur 13 Sur 0 1009.8 -0.4 90
2019-03-29 07:00:00 5.4 6 Sur 13 Sudeste 0 1009.9 -0.6 87
2019-03-29 06:00:00 4.8 8 Sur 11 Sur 0 1010 -1 92
2019-03-29 05:00:00 5.1 8 Sur 11 Sur 0 1010.2 -1 90
2019-03-29 04:00:00 5.7 6 Sur 9 Sur 0 1010.5 -1 88
2019-03-29 03:00:00 6.9 0 Calma 9 Sur 0 1011 -0.9 80
2019-03-29 02:00:00 7.5 5 Sur 8 Sur 0 1011.2 -0.9 75
2019-03-29 01:00:00 8.6 5 Sur 8 Sur 0 1011.5 -0.8 73
2019-03-29 00:00:00 9.3 5 Noroeste 9 Noroeste 0 1011.9 -0.3 71
2019-03-28 23:00:00 10 5 Noroeste 9 Norte 0 1012.1 0.4 68
2019-03-28 22:00:00 11.3 6 Norte 15 Norte 0 1012.3 0.9 62
2019-03-28 21:00:00 12.6 9 Norte 18 Norte 0 1012.2 1 54
2019-03-28 20:00:00 14.7 14 Norte 26 Nordeste 0 1011.7 0.3 49
2019-03-28 19:00:00 17.5 15 Nordeste 26 Nordeste 0 1011.4 -0.6 43
2019-03-28 18:00:00 19.3 12 Norte 28 Norte 0 1011.2 -1.4 39
2019-03-28 17:00:00 20.1 17 Norte 33 Nordeste 0 1011.4 -1.9 37
2019-03-28 16:00:00 20.9 18 Nordeste 35 Nordeste 0 1012 -2.2 34
2019-03-28 15:00:00 20.5 19 Norte 41 Norte 0 1012.6 -2.3 35
2019-03-28 14:00:00 20.1 13 Norte 37 Noroeste 0 1013.3 -2.2 38
2019-03-28 13:00:00 18.1 12 Norte 21 Norte 0 1014.2 -1.5 41
2019-03-28 12:00:00 16.1 6 Norte 11 Norte 0 1014.9 -0.7 40
2019-03-28 11:00:00 13.9 3 Noroeste 11 Sur 0 1015.5 0.1 43
2019-03-28 10:00:00 12.8 4 Sudeste 22 Sudeste 0 1015.7 1 51
2019-03-28 09:00:00 8.9 5 Sur 8 Sur 0 1015.6 1.1 64
2019-03-28 08:00:00 7 2 Norte 5 Norte 0 1015.4 1.2 63
2019-03-28 07:00:00 6 5 Sur 13 Sur 0 1014.7 0.5 66
2019-03-28 06:00:00 6.8 5 Noroeste 11 Sudoeste 0 1014.5 0.2 63
2019-03-28 05:00:00 8.1 6 Sudoeste 11 Sur 0 1014.2 -0.3 56
2019-03-28 04:00:00 9 0 Calma 8 Sudoeste 0 1014.2 -0.3 52
2019-03-28 03:00:00 9.9 0 Calma 9 Noroeste 0 1014.3 0 50
2019-03-28 02:00:00 10.5 5 Noroeste 18 Sudeste 0 1014.5 0.3 49
2019-03-28 01:00:00 11.4 3 Norte 24 Este 0 1014.5 0.4 49
2019-03-28 00:00:00 12.6 16 Este 30 Este 0 1014.3 0.6 41
2019-03-27 23:00:00 11.4 15 Nordeste 26 Nordeste 0 1014.2 1 48
2019-03-27 22:00:00 11.9 9 Norte 18 Nordeste 0 1014.1 1.6 50
2019-03-27 21:00:00 12.8 9 Nordeste 21 Nordeste 0 1013.7 1.8 38
2019-03-27 20:00:00 14.6 13 Nordeste 33 Nordeste 0 1013.2 1 33
2019-03-27 19:00:00 17.2 21 Nordeste 37 Este 0 1012.5 0.3 28
2019-03-27 18:00:00 19.2 26 Este 45 Este 0 1011.9 -0.3 25
2019-03-27 17:00:00 20.2 19 Este 32 Este 0 1012.2 -0.1 30
2019-03-27 16:00:00 20.7 21 Este 35 Este 0 1012.2 -0.6 31
2019-03-27 15:00:00 21.2 23 Nordeste 39 Nordeste 0 1012.2 -0.7 32
2019-03-27 14:00:00 20.8 12 Norte 21 Norte 0 1012.3 -0.9 32
2019-03-27 13:00:00 18.5 11 Norte 18 Nordeste 0 1012.8 -0.3 33
2019-03-27 12:00:00 18.1 7 Este 17 Sudeste 0 1012.9 0.2 33
2019-03-27 11:00:00 16.2 7 Sudeste 15 Sur 0 1013.2 0.9 33
2019-03-27 10:00:00 13.8 9 Sur 22 Sudeste 0 1013.1 1.3 37
2019-03-27 09:00:00 11.1 14 Sur 26 Sur 0 1012.7 1.4 44
2019-03-27 08:00:00 9.1 15 Sudeste 26 Sudeste 0 1012.3 1.4 50
2019-03-27 07:00:00 7.4 12 Sur 22 Sudeste 0 1011.8 0.9 55
2019-03-27 06:00:00 7 8 Sudeste 17 Sudeste 0 1011.3 0.4 59
2019-03-27 05:00:00 7.1 6 Sudeste 18 Sudoeste 0 1010.9 0.6 64
2019-03-27 04:00:00 7.8 7 Sur 15 Sur 0 1010.9 0.6 59
2019-03-27 03:00:00 9.3 9 Sur 11 Sur 0 1010.9 0.9 55
2019-03-27 02:00:00 9.5 9 Sur 18 Sudeste 0 1010.3 0.6 58
2019-03-27 01:00:00 9.6 10 Sudeste 17 Sudeste 0 1010.3 0.9 59
2019-03-27 00:00:00 9.9 6 Sudeste 11 Sudeste 0 1010 1 58